sensor_id;sensor_type;location;lat;lon;timestamp;pressure;altitude;pressure_sealevel;temperature;humidity
9923;BME280;5000;50.546;9.720;2024-01-16T00:02:07;97075.16;;;18.52;51.30
9923;BME280;5000;50.546;9.720;2024-01-16T00:07:01;97072.81;;;18.49;51.55
9923;BME280;5000;50.546;9.720;2024-01-16T00:11:53;97085.50;;;18.47;51.59
9923;BME280;5000;50.546;9.720;2024-01-16T00:16:46;97090.16;;;18.45;51.34
9923;BME280;5000;50.546;9.720;2024-01-16T00:21:41;97098.53;;;18.41;51.36
9923;BME280;5000;50.546;9.720;2024-01-16T00:26:37;97107.69;;;18.39;51.60
9923;BME280;5000;50.546;9.720;2024-01-16T00:31:30;97114.91;;;18.38;51.45
9923;BME280;5000;50.546;9.720;2024-01-16T00:36:23;97124.09;;;18.36;51.50
9923;BME280;5000;50.546;9.720;2024-01-16T00:41:17;97123.38;;;18.34;51.48
9923;BME280;5000;50.546;9.720;2024-01-16T00:46:10;97132.56;;;18.31;51.52
9923;BME280;5000;50.546;9.720;2024-01-16T00:51:03;97136.25;;;18.30;51.46
9923;BME280;5000;50.546;9.720;2024-01-16T00:55:56;97144.56;;;18.27;51.70
9923;BME280;5000;50.546;9.720;2024-01-16T01:00:50;97149.22;;;18.25;51.68
9923;BME280;5000;50.546;9.720;2024-01-16T01:05:43;97157.59;;;18.22;51.44
9923;BME280;5000;50.546;9.720;2024-01-16T01:10:36;97161.25;;;18.21;51.37
9923;BME280;5000;50.546;9.720;2024-01-16T01:15:29;97171.25;;;18.19;51.52
9923;BME280;5000;50.546;9.720;2024-01-16T01:20:23;97171.56;;;18.16;51.62
9923;BME280;5000;50.546;9.720;2024-01-16T01:25:17;97168.22;;;18.14;51.80
9923;BME280;5000;50.546;9.720;2024-01-16T01:30:10;97178.22;;;18.12;51.81
9923;BME280;5000;50.546;9.720;2024-01-16T01:35:03;97185.38;;;18.11;51.78
9923;BME280;5000;50.546;9.720;2024-01-16T01:39:57;97194.56;;;18.08;51.86
9923;BME280;5000;50.546;9.720;2024-01-16T01:44:50;97199.22;;;18.06;51.63
9923;BME280;5000;50.546;9.720;2024-01-16T01:49:44;97200.22;;;18.05;51.78
9923;BME280;5000;50.546;9.720;2024-01-16T01:54:37;97202.22;;;18.03;51.65
9923;BME280;5000;50.546;9.720;2024-01-16T01:59:32;97199.66;;;18.02;51.72
9923;BME280;5000;50.546;9.720;2024-01-16T02:04:25;97208.84;;;17.99;51.84
9923;BME280;5000;50.546;9.720;2024-01-16T02:09:18;97206.47;;;17.96;51.74
9923;BME280;5000;50.546;9.720;2024-01-16T02:14:11;97209.13;;;17.96;51.94
9923;BME280;5000;50.546;9.720;2024-01-16T02:19:06;97218.16;;;17.95;51.63
9923;BME280;5000;50.546;9.720;2024-01-16T02:24:01;97214.06;;;17.91;51.58
9923;BME280;5000;50.546;9.720;2024-01-16T02:28:54;97224.94;;;17.89;51.72
9923;BME280;5000;50.546;9.720;2024-01-16T02:33:47;97226.91;;;17.87;51.88
9923;BME280;5000;50.546;9.720;2024-01-16T02:38:40;97235.91;;;17.86;51.65
9923;BME280;5000;50.546;9.720;2024-01-16T02:43:37;97248.47;;;17.86;52.03
9923;BME280;5000;50.546;9.720;2024-01-16T02:48:30;97248.75;;;17.83;51.71
9923;BME280;5000;50.546;9.720;2024-01-16T02:53:23;97255.09;;;17.82;51.68
9923;BME280;5000;50.546;9.720;2024-01-16T02:58:17;97249.88;;;17.80;51.97
9923;BME280;5000;50.546;9.720;2024-01-16T03:03:11;97250.00;;;17.78;51.69
9923;BME280;5000;50.546;9.720;2024-01-16T03:08:04;97258.34;;;17.75;51.68
9923;BME280;5000;50.546;9.720;2024-01-16T03:12:57;97262.03;;;17.74;52.06
9923;BME280;5000;50.546;9.720;2024-01-16T03:17:50;97264.69;;;17.74;51.96
9923;BME280;5000;50.546;9.720;2024-01-16T03:22:45;97258.63;;;17.72;51.78
9923;BME280;5000;50.546;9.720;2024-01-16T03:27:38;97275.66;;;17.71;51.78
9923;BME280;5000;50.546;9.720;2024-01-16T03:32:30;97279.50;;;17.69;52.01
9923;BME280;5000;50.546;9.720;2024-01-16T03:37:23;97276.97;;;17.67;52.03
9923;BME280;5000;50.546;9.720;2024-01-16T03:42:18;97275.28;;;17.66;51.73
9923;BME280;5000;50.546;9.720;2024-01-16T03:47:11;97278.94;;;17.65;51.91
9923;BME280;5000;50.546;9.720;2024-01-16T03:52:04;97273.72;;;17.63;51.83
9923;BME280;5000;50.546;9.720;2024-01-16T03:56:57;97279.38;;;17.60;51.75
9923;BME280;5000;50.546;9.720;2024-01-16T04:01:51;97286.53;;;17.60;51.91
9923;BME280;5000;50.546;9.720;2024-01-16T04:06:44;97286.53;;;17.60;52.05
9923;BME280;5000;50.546;9.720;2024-01-16T04:11:38;97284.84;;;17.59;51.82
9923;BME280;5000;50.546;9.720;2024-01-16T04:16:31;97283.31;;;17.56;51.98
9923;BME280;5000;50.546;9.720;2024-01-16T04:21:25;97286.97;;;17.55;51.92
9923;BME280;5000;50.546;9.720;2024-01-16T04:26:18;97283.47;;;17.55;51.91
9923;BME280;5000;50.546;9.720;2024-01-16T04:31:11;97281.78;;;17.54;52.19
9923;BME280;5000;50.546;9.720;2024-01-16T04:36:05;97282.75;;;17.53;51.73
9923;BME280;5000;50.546;9.720;2024-01-16T04:41:02;97287.41;;;17.51;52.00
9923;BME280;5000;50.546;9.720;2024-01-16T04:45:55;97290.22;;;17.49;51.84
9923;BME280;5000;50.546;9.720;2024-01-16T04:50:50;97292.91;;;17.49;51.85
9923;BME280;5000;50.546;9.720;2024-01-16T04:55:43;97289.53;;;17.47;51.77
9923;BME280;5000;50.546;9.720;2024-01-16T05:00:37;97283.34;;;17.46;51.66
9923;BME280;5000;50.546;9.720;2024-01-16T05:05:30;97291.50;;;17.45;51.90
9923;BME280;5000;50.546;9.720;2024-01-16T05:10:23;97285.28;;;17.54;51.68
9923;BME280;5000;50.546;9.720;2024-01-16T05:15:16;97282.59;;;17.64;51.68
9923;BME280;5000;50.546;9.720;2024-01-16T05:20:11;97280.75;;;17.74;51.61
9923;BME280;5000;50.546;9.720;2024-01-16T05:25:04;97280.84;;;17.83;51.49
9923;BME280;5000;50.546;9.720;2024-01-16T05:29:58;97283.06;;;17.97;51.47
9923;BME280;5000;50.546;9.720;2024-01-16T05:34:52;97278.94;;;18.13;50.97
9923;BME280;5000;50.546;9.720;2024-01-16T05:39:46;97273.06;;;18.27;51.14
9923;BME280;5000;50.546;9.720;2024-01-16T05:44:39;97283.28;;;18.41;51.21
9923;BME280;5000;50.546;9.720;2024-01-16T05:49:32;97283.03;;;18.53;51.28
9923;BME280;5000;50.546;9.720;2024-01-16T05:54:25;97286.50;;;18.63;51.40
9923;BME280;5000;50.546;9.720;2024-01-16T05:59:19;97298.00;;;18.73;51.25
9923;BME280;5000;50.546;9.720;2024-01-16T06:04:12;97289.34;;;18.80;51.32
9923;BME280;5000;50.546;9.720;2024-01-16T06:09:05;97293.13;;;18.87;51.54
9923;BME280;5000;50.546;9.720;2024-01-16T06:13:58;97294.47;;;18.91;51.75
9923;BME280;5000;50.546;9.720;2024-01-16T06:18:53;97295.56;;;18.98;51.67
9923;BME280;5000;50.546;9.720;2024-01-16T06:23:46;97284.56;;;19.01;51.59
9923;BME280;5000;50.546;9.720;2024-01-16T06:28:39;97285.94;;;19.06;51.85
9923;BME280;5000;50.546;9.720;2024-01-16T06:33:34;97280.94;;;19.11;51.82
9923;BME280;5000;50.546;9.720;2024-01-16T06:38:29;97283.34;;;19.14;52.00
9923;BME280;5000;50.546;9.720;2024-01-16T06:43:22;97279.31;;;19.18;51.96
9923;BME280;5000;50.546;9.720;2024-01-16T06:48:15;97287.06;;;19.21;51.89
9923;BME280;5000;50.546;9.720;2024-01-16T06:53:09;97287.78;;;19.23;52.07
9923;BME280;5000;50.546;9.720;2024-01-16T06:58:04;97279.38;;;19.26;51.99
9923;BME280;5000;50.546;9.720;2024-01-16T07:02:56;97280.94;;;19.29;51.93
9923;BME280;5000;50.546;9.720;2024-01-16T07:07:49;97283.47;;;19.30;51.90
9923;BME280;5000;50.546;9.720;2024-01-16T07:12:42;97282.28;;;19.33;52.25
9923;BME280;5000;50.546;9.720;2024-01-16T07:17:37;97278.63;;;19.34;52.44
9923;BME280;5000;50.546;9.720;2024-01-16T07:22:29;97283.00;;;19.35;52.27
9923;BME280;5000;50.546;9.720;2024-01-16T07:27:23;97287.19;;;19.38;52.34
9923;BME280;5000;50.546;9.720;2024-01-16T07:32:15;97293.56;;;19.37;52.54
9923;BME280;5000;50.546;9.720;2024-01-16T07:37:10;97283.69;;;19.37;52.32
9923;BME280;5000;50.546;9.720;2024-01-16T07:42:04;97285.50;;;19.37;52.58
9923;BME280;5000;50.546;9.720;2024-01-16T07:46:57;97283.16;;;19.33;52.06
9923;BME280;5000;50.546;9.720;2024-01-16T07:51:49;97291.72;;;19.37;51.88
9923;BME280;5000;50.546;9.720;2024-01-16T07:56:44;97303.66;;;19.43;51.72
9923;BME280;5000;50.546;9.720;2024-01-16T08:01:37;97295.97;;;19.48;51.79
9923;BME280;5000;50.546;9.720;2024-01-16T08:06:30;97311.44;;;19.54;51.69
9923;BME280;5000;50.546;9.720;2024-01-16T08:11:23;97319.03;;;19.59;51.95
9923;BME280;5000;50.546;9.720;2024-01-16T08:16:17;97317.56;;;19.64;51.90
9923;BME280;5000;50.546;9.720;2024-01-16T08:21:10;97315.56;;;19.66;52.05
9923;BME280;5000;50.546;9.720;2024-01-16T08:26:03;97325.00;;;19.71;52.04
9923;BME280;5000;50.546;9.720;2024-01-16T08:30:57;97322.13;;;19.72;52.35
9923;BME280;5000;50.546;9.720;2024-01-16T08:35:51;97332.72;;;19.74;52.15
9923;BME280;5000;50.546;9.720;2024-01-16T08:40:44;97354.88;;;19.76;52.21
9923;BME280;5000;50.546;9.720;2024-01-16T08:45:37;97345.00;;;19.76;52.31
9923;BME280;5000;50.546;9.720;2024-01-16T08:50:30;97358.25;;;19.78;52.43
9923;BME280;5000;50.546;9.720;2024-01-16T08:55:24;97357.25;;;19.79;52.37
9923;BME280;5000;50.546;9.720;2024-01-16T09:00:17;97351.88;;;19.79;52.49
9923;BME280;5000;50.546;9.720;2024-01-16T09:05:10;97363.31;;;19.81;52.66
9923;BME280;5000;50.546;9.720;2024-01-16T09:10:05;97362.28;;;19.82;52.71
9923;BME280;5000;50.546;9.720;2024-01-16T09:14:59;97361.28;;;19.83;52.58
9923;BME280;5000;50.546;9.720;2024-01-16T09:19:52;97366.50;;;19.85;52.78
9923;BME280;5000;50.546;9.720;2024-01-16T09:24:45;97367.38;;;19.85;52.75
9923;BME280;5000;50.546;9.720;2024-01-16T09:29:38;97376.13;;;19.87;52.61
9923;BME280;5000;50.546;9.720;2024-01-16T09:34:33;97365.38;;;19.87;52.60
9923;BME280;5000;50.546;9.720;2024-01-16T09:39:26;97367.06;;;19.88;52.71
9923;BME280;5000;50.546;9.720;2024-01-16T09:44:19;97373.13;;;19.90;52.55
9923;BME280;5000;50.546;9.720;2024-01-16T09:49:12;97371.00;;;19.84;51.81
9923;BME280;5000;50.546;9.720;2024-01-16T09:54:08;97372.56;;;19.87;52.05
9923;BME280;5000;50.546;9.720;2024-01-16T09:59:02;97366.22;;;19.88;52.07
9923;BME280;5000;50.546;9.720;2024-01-16T10:03:56;97380.31;;;19.90;52.11
9923;BME280;5000;50.546;9.720;2024-01-16T10:08:50;97377.47;;;19.91;52.10
9923;BME280;5000;50.546;9.720;2024-01-16T10:13:44;97383.53;;;19.93;52.14
9923;BME280;5000;50.546;9.720;2024-01-16T10:18:37;97389.59;;;19.95;52.16
9923;BME280;5000;50.546;9.720;2024-01-16T10:23:31;97380.53;;;19.96;52.33
9923;BME280;5000;50.546;9.720;2024-01-16T10:28:24;97387.59;;;19.97;52.33
9923;BME280;5000;50.546;9.720;2024-01-16T10:33:18;97383.91;;;19.99;52.72
9923;BME280;5000;50.546;9.720;2024-01-16T10:38:32;97378.38;;;20.00;52.37
9923;BME280;5000;50.546;9.720;2024-01-16T10:43:27;97374.69;;;20.01;52.77
9923;BME280;5000;50.546;9.720;2024-01-16T10:48:20;97381.84;;;19.92;52.71
9923;BME280;5000;50.546;9.720;2024-01-16T10:53:13;97375.84;;;19.80;52.54
9923;BME280;5000;50.546;9.720;2024-01-16T10:58:09;97368.59;;;19.73;51.82
9923;BME280;5000;50.546;9.720;2024-01-16T11:03:05;97372.91;;;19.65;51.16
9923;BME280;5000;50.546;9.720;2024-01-16T11:07:58;97371.84;;;19.58;50.20
9923;BME280;5000;50.546;9.720;2024-01-16T11:12:54;97374.16;;;19.53;50.06
9923;BME280;5000;50.546;9.720;2024-01-16T11:17:49;97383.50;;;19.49;49.45
9923;BME280;5000;50.546;9.720;2024-01-16T11:22:43;97374.06;;;19.45;49.48
9923;BME280;5000;50.546;9.720;2024-01-16T11:27:36;97370.03;;;19.41;49.33
9923;BME280;5000;50.546;9.720;2024-01-16T11:32:33;97355.09;;;19.38;48.54
9923;BME280;5000;50.546;9.720;2024-01-16T11:37:31;97359.94;;;19.34;48.35
9923;BME280;5000;50.546;9.720;2024-01-16T11:42:25;97349.50;;;19.31;48.07
9923;BME280;5000;50.546;9.720;2024-01-16T11:47:18;97334.03;;;19.25;47.35
9923;BME280;5000;50.546;9.720;2024-01-16T11:52:12;97326.09;;;18.69;43.14
9923;BME280;5000;50.546;9.720;2024-01-16T11:57:12;97327.94;;;18.41;43.15
9923;BME280;5000;50.546;9.720;2024-01-16T12:02:12;97317.19;;;18.23;42.89
9923;BME280;5000;50.546;9.720;2024-01-16T12:07:07;97310.59;;;18.17;43.23
9923;BME280;5000;50.546;9.720;2024-01-16T12:12:01;97315.00;;;18.08;43.03
9923;BME280;5000;50.546;9.720;2024-01-16T12:17:09;97302.84;;;18.14;44.12
9923;BME280;5000;50.546;9.720;2024-01-16T12:22:02;97299.97;;;18.53;44.32
9923;BME280;5000;50.546;9.720;2024-01-16T12:26:57;97289.91;;;18.83;44.57
9923;BME280;5000;50.546;9.720;2024-01-16T12:31:50;97296.66;;;19.06;44.80
9923;BME280;5000;50.546;9.720;2024-01-16T12:36:44;97291.59;;;19.21;45.49
9923;BME280;5000;50.546;9.720;2024-01-16T12:41:38;97280.47;;;19.33;45.67
9923;BME280;5000;50.546;9.720;2024-01-16T12:46:34;97288.56;;;19.42;46.15
9923;BME280;5000;50.546;9.720;2024-01-16T12:51:27;97291.47;;;19.48;46.44
9923;BME280;5000;50.546;9.720;2024-01-16T12:56:21;97299.06;;;19.53;46.56
9923;BME280;5000;50.546;9.720;2024-01-16T13:01:25;97290.53;;;19.58;46.90
9923;BME280;5000;50.546;9.720;2024-01-16T13:06:29;97296.44;;;19.61;47.28
9923;BME280;5000;50.546;9.720;2024-01-16T13:11:23;97283.53;;;19.65;47.53
9923;BME280;5000;50.546;9.720;2024-01-16T13:16:25;97265.28;;;19.69;47.62
9923;BME280;5000;50.546;9.720;2024-01-16T13:21:20;97265.09;;;19.70;47.85
9923;BME280;5000;50.546;9.720;2024-01-16T13:26:13;97254.25;;;19.72;48.06
9923;BME280;5000;50.546;9.720;2024-01-16T13:31:08;97251.56;;;19.72;48.21
9923;BME280;5000;50.546;9.720;2024-01-16T13:36:00;97248.88;;;19.72;48.37
9923;BME280;5000;50.546;9.720;2024-01-16T13:40:56;97233.78;;;19.71;48.42
9923;BME280;5000;50.546;9.720;2024-01-16T13:45:49;97245.81;;;19.66;48.39
9923;BME280;5000;50.546;9.720;2024-01-16T13:50:44;97235.06;;;19.66;48.22
9923;BME280;5000;50.546;9.720;2024-01-16T13:55:37;97223.34;;;19.67;48.17
9923;BME280;5000;50.546;9.720;2024-01-16T14:00:30;97221.34;;;19.70;48.35
9923;BME280;5000;50.546;9.720;2024-01-16T14:05:23;97216.34;;;19.75;48.66
9923;BME280;5000;50.546;9.720;2024-01-16T14:10:20;97223.91;;;19.79;48.83
9923;BME280;5000;50.546;9.720;2024-01-16T14:15:13;97214.22;;;19.87;48.98
9923;BME280;5000;50.546;9.720;2024-01-16T14:20:11;97219.81;;;19.93;49.02
9923;BME280;5000;50.546;9.720;2024-01-16T14:25:04;97211.25;;;19.98;48.94
9923;BME280;5000;50.546;9.720;2024-01-16T14:30:04;97226.19;;;20.01;49.23
9923;BME280;5000;50.546;9.720;2024-01-16T14:34:58;97238.63;;;20.02;48.96
9923;BME280;5000;50.546;9.720;2024-01-16T14:39:51;97229.56;;;20.03;49.16
9923;BME280;5000;50.546;9.720;2024-01-16T14:44:44;97230.56;;;20.02;49.32
9923;BME280;5000;50.546;9.720;2024-01-16T14:49:38;97238.63;;;20.02;49.14
9923;BME280;5000;50.546;9.720;2024-01-16T14:54:31;97233.25;;;20.02;49.06
9923;BME280;5000;50.546;9.720;2024-01-16T14:59:25;97227.06;;;20.01;49.31
9923;BME280;5000;50.546;9.720;2024-01-16T15:04:19;97231.56;;;20.01;49.48
9923;BME280;5000;50.546;9.720;2024-01-16T15:09:13;97236.09;;;20.00;49.22
9923;BME280;5000;50.546;9.720;2024-01-16T15:14:06;97225.53;;;19.99;49.44
9923;BME280;5000;50.546;9.720;2024-01-16T15:18:59;97233.59;;;19.99;49.53
9923;BME280;5000;50.546;9.720;2024-01-16T15:23:52;97219.50;;;19.96;49.27
9923;BME280;5000;50.546;9.720;2024-01-16T15:28:47;97215.13;;;19.95;49.17
9923;BME280;5000;50.546;9.720;2024-01-16T15:33:41;97210.75;;;19.94;49.13
9923;BME280;5000;50.546;9.720;2024-01-16T15:38:34;97218.63;;;19.96;49.13
9923;BME280;5000;50.546;9.720;2024-01-16T15:43:27;97222.00;;;19.98;49.58
9923;BME280;5000;50.546;9.720;2024-01-16T15:48:21;97221.84;;;20.00;49.41
9923;BME280;5000;50.546;9.720;2024-01-16T15:53:15;97230.75;;;20.00;49.81
9923;BME280;5000;50.546;9.720;2024-01-16T15:58:08;97232.75;;;19.98;49.91
9923;BME280;5000;50.546;9.720;2024-01-16T16:03:01;97235.91;;;19.93;50.28
9923;BME280;5000;50.546;9.720;2024-01-16T16:07:56;97221.28;;;19.88;50.37
9923;BME280;5000;50.546;9.720;2024-01-16T16:12:49;97225.41;;;19.82;50.29
9923;BME280;5000;50.546;9.720;2024-01-16T16:17:42;97216.19;;;19.76;50.44
9923;BME280;5000;50.546;9.720;2024-01-16T16:22:35;97212.31;;;19.71;50.36
9923;BME280;5000;50.546;9.720;2024-01-16T16:27:31;97217.28;;;19.65;50.15
9923;BME280;5000;50.546;9.720;2024-01-16T16:32:24;97215.78;;;19.63;50.49
9923;BME280;5000;50.546;9.720;2024-01-16T16:37:17;97211.94;;;19.65;50.24
9923;BME280;5000;50.546;9.720;2024-01-16T16:42:11;97207.09;;;19.69;50.15
9923;BME280;5000;50.546;9.720;2024-01-16T16:47:05;97202.22;;;19.73;50.31
9923;BME280;5000;50.546;9.720;2024-01-16T16:51:59;97204.59;;;19.76;50.31
9923;BME280;5000;50.546;9.720;2024-01-16T16:56:51;97209.66;;;19.79;50.05
9923;BME280;5000;50.546;9.720;2024-01-16T17:01:46;97214.03;;;19.80;50.21
9923;BME280;5000;50.546;9.720;2024-01-16T17:06:40;97217.22;;;19.84;50.09
9923;BME280;5000;50.546;9.720;2024-01-16T17:11:33;97236.84;;;19.84;50.05
9923;BME280;5000;50.546;9.720;2024-01-16T17:16:26;97244.78;;;19.86;50.18
9923;BME280;5000;50.546;9.720;2024-01-16T17:21:20;97238.56;;;19.85;50.03
9923;BME280;5000;50.546;9.720;2024-01-16T17:26:15;97233.19;;;19.85;50.05
9923;BME280;5000;50.546;9.720;2024-01-16T17:31:08;97223.31;;;19.86;50.08
9923;BME280;5000;50.546;9.720;2024-01-16T17:36:01;97217.09;;;19.85;50.12
9923;BME280;5000;50.546;9.720;2024-01-16T17:40:59;97214.41;;;19.85;50.11
9923;BME280;5000;50.546;9.720;2024-01-16T17:45:54;97215.09;;;19.87;50.28
9923;BME280;5000;50.546;9.720;2024-01-16T17:50:47;97214.78;;;19.90;50.27
9923;BME280;5000;50.546;9.720;2024-01-16T17:55:40;97215.13;;;19.95;50.01
9923;BME280;5000;50.546;9.720;2024-01-16T18:00:33;97212.13;;;19.99;50.14
9923;BME280;5000;50.546;9.720;2024-01-16T18:05:28;97218.81;;;20.03;50.02
9923;BME280;5000;50.546;9.720;2024-01-16T18:10:21;97206.25;;;20.03;49.83
9923;BME280;5000;50.546;9.720;2024-01-16T18:15:14;97198.34;;;20.02;49.95
9923;BME280;5000;50.546;9.720;2024-01-16T18:20:07;97201.38;;;19.99;50.08
9923;BME280;5000;50.546;9.720;2024-01-16T18:25:03;97197.50;;;19.93;50.10
9923;BME280;5000;50.546;9.720;2024-01-16T18:29:57;97193.63;;;19.87;50.34
9923;BME280;5000;50.546;9.720;2024-01-16T18:34:51;97195.91;;;19.82;50.33
9923;BME280;5000;50.546;9.720;2024-01-16T18:39:44;97186.69;;;19.76;50.29
9923;BME280;5000;50.546;9.720;2024-01-16T18:44:40;97183.63;;;19.71;50.47
9923;BME280;5000;50.546;9.720;2024-01-16T18:49:33;97179.72;;;19.65;50.48
9923;BME280;5000;50.546;9.720;2024-01-16T18:54:26;97179.22;;;19.62;50.41
9923;BME280;5000;50.546;9.720;2024-01-16T18:59:20;97164.31;;;19.67;50.55
9923;BME280;5000;50.546;9.720;2024-01-16T19:04:15;97159.31;;;19.73;50.25
9923;BME280;5000;50.546;9.720;2024-01-16T19:09:08;97160.50;;;19.78;50.45
9923;BME280;5000;50.546;9.720;2024-01-16T19:14:03;97158.34;;;19.82;50.77
9923;BME280;5000;50.546;9.720;2024-01-16T19:18:56;97158.03;;;19.85;50.72
9923;BME280;5000;50.546;9.720;2024-01-16T19:23:51;97150.69;;;19.87;50.98
9923;BME280;5000;50.546;9.720;2024-01-16T19:28:44;97142.47;;;19.89;50.91
9923;BME280;5000;50.546;9.720;2024-01-16T19:33:37;97128.91;;;19.90;50.87
9923;BME280;5000;50.546;9.720;2024-01-16T19:38:32;97126.03;;;19.92;50.88
9923;BME280;5000;50.546;9.720;2024-01-16T19:43:27;97120.00;;;19.98;50.79
9923;BME280;5000;50.546;9.720;2024-01-16T19:48:20;97105.09;;;20.04;50.68
9923;BME280;5000;50.546;9.720;2024-01-16T19:53:14;97114.00;;;20.12;50.94
9923;BME280;5000;50.546;9.720;2024-01-16T19:58:08;97120.41;;;20.20;50.62
9923;BME280;5000;50.546;9.720;2024-01-16T20:03:04;97114.53;;;20.24;50.73
9923;BME280;5000;50.546;9.720;2024-01-16T20:07:59;97112.16;;;20.29;51.09
9923;BME280;5000;50.546;9.720;2024-01-16T20:12:52;97107.47;;;20.32;51.06
9923;BME280;5000;50.546;9.720;2024-01-16T20:17:45;97100.28;;;20.32;50.91
9923;BME280;5000;50.546;9.720;2024-01-16T20:22:40;97103.59;;;20.34;51.26
9923;BME280;5000;50.546;9.720;2024-01-16T20:27:33;97082.97;;;20.35;51.12
9923;BME280;5000;50.546;9.720;2024-01-16T20:32:26;97069.56;;;20.35;51.19
9923;BME280;5000;50.546;9.720;2024-01-16T20:37:19;97053.44;;;20.35;51.26
9923;BME280;5000;50.546;9.720;2024-01-16T20:42:14;97053.44;;;20.35;51.25
9923;BME280;5000;50.546;9.720;2024-01-16T20:47:06;97057.81;;;20.36;51.47
9923;BME280;5000;50.546;9.720;2024-01-16T20:52:02;97052.44;;;20.36;51.60
9923;BME280;5000;50.546;9.720;2024-01-16T20:56:55;97053.25;;;20.36;51.80
9923;BME280;5000;50.546;9.720;2024-01-16T21:01:49;97046.22;;;20.19;49.78
9923;BME280;5000;50.546;9.720;2024-01-16T21:06:43;97048.06;;;20.18;50.65
9923;BME280;5000;50.546;9.720;2024-01-16T21:11:36;97045.38;;;20.26;50.09
9923;BME280;5000;50.546;9.720;2024-01-16T21:16:29;97038.34;;;20.34;49.81
9923;BME280;5000;50.546;9.720;2024-01-16T21:21:25;97035.97;;;20.39;50.07
9923;BME280;5000;50.546;9.720;2024-01-16T21:26:19;97037.66;;;20.40;50.23
9923;BME280;5000;50.546;9.720;2024-01-16T21:31:12;97034.47;;;20.36;50.26
9923;BME280;5000;50.546;9.720;2024-01-16T21:36:05;97032.09;;;20.33;50.10
9923;BME280;5000;50.546;9.720;2024-01-16T21:41:01;97031.09;;;20.26;50.48
9923;BME280;5000;50.546;9.720;2024-01-16T21:45:56;97040.66;;;20.20;50.62
9923;BME280;5000;50.546;9.720;2024-01-16T21:50:49;97038.84;;;20.12;50.45
9923;BME280;5000;50.546;9.720;2024-01-16T21:55:43;97042.16;;;20.06;50.70
9923;BME280;5000;50.546;9.720;2024-01-16T22:00:37;97039.34;;;20.00;50.74
9923;BME280;5000;50.546;9.720;2024-01-16T22:05:30;97019.50;;;19.92;50.83
9923;BME280;5000;50.546;9.720;2024-01-16T22:10:23;97000.41;;;19.87;50.84
9923;BME280;5000;50.546;9.720;2024-01-16T22:15:16;96996.69;;;19.80;50.86
9923;BME280;5000;50.546;9.720;2024-01-16T22:20:11;96983.09;;;19.73;50.94
9923;BME280;5000;50.546;9.720;2024-01-16T22:25:06;96974.84;;;19.66;50.90
9923;BME280;5000;50.546;9.720;2024-01-16T22:30:00;96973.53;;;19.62;50.79
9923;BME280;5000;50.546;9.720;2024-01-16T22:34:54;96956.38;;;19.55;50.67
9923;BME280;5000;50.546;9.720;2024-01-16T22:39:48;96949.84;;;19.49;50.76
9923;BME280;5000;50.546;9.720;2024-01-16T22:44:41;96944.97;;;19.45;50.91
9923;BME280;5000;50.546;9.720;2024-01-16T22:49:37;96941.13;;;19.39;51.06
9923;BME280;5000;50.546;9.720;2024-01-16T22:54:30;96927.53;;;19.32;51.10
9923;BME280;5000;50.546;9.720;2024-01-16T22:59:25;96921.16;;;19.25;51.08
9923;BME280;5000;50.546;9.720;2024-01-16T23:04:18;96925.16;;;19.21;51.21
9923;BME280;5000;50.546;9.720;2024-01-16T23:09:11;96928.16;;;19.18;50.95
9923;BME280;5000;50.546;9.720;2024-01-16T23:14:04;96919.78;;;19.13;51.26
9923;BME280;5000;50.546;9.720;2024-01-16T23:18:59;96907.88;;;19.07;51.00
9923;BME280;5000;50.546;9.720;2024-01-16T23:23:52;96906.50;;;19.03;50.91
9923;BME280;5000;50.546;9.720;2024-01-16T23:28:45;96906.69;;;19.01;50.80
9923;BME280;5000;50.546;9.720;2024-01-16T23:33:39;96897.31;;;18.97;50.88
9923;BME280;5000;50.546;9.720;2024-01-16T23:38:34;96898.63;;;18.93;50.89
9923;BME280;5000;50.546;9.720;2024-01-16T23:43:29;96890.88;;;18.90;51.04
9923;BME280;5000;50.546;9.720;2024-01-16T23:48:25;96881.31;;;18.87;51.03
9923;BME280;5000;50.546;9.720;2024-01-16T23:53:18;96871.25;;;18.81;51.21
9923;BME280;5000;50.546;9.720;2024-01-16T23:58:12;96854.69;;;18.78;51.12
